Time;durP1;ratioP1;P1;durP2;ratioP2;P2;SDS_P1;SDS_P2;PMS_P1;PMS_P2;Temp;Humidity;BMP_temperature;BMP_pressure;BME280_temperature;BME280_humidity;BME280_pressure;Samples;Min_cycle;Max_cycle;Signal;HPM_P1;HPM_P2
2021/07/26 00:00:32;;;;;;;12.30;9.13;;;;;;;17.12;88.91;100992.88;5073180;28;20036;-63
2021/07/26 00:02:57;;;;;;;11.95;8.55;;;;;;;17.12;89.12;100989.31;5073900;28;20095;-64
2021/07/26 00:05:23;;;;;;;14.77;9.73;;;;;;;17.12;89.04;100989.31;5073827;28;20041;-64
2021/07/26 00:07:48;;;;;;;19.05;10.10;;;;;;;17.08;89.11;100987.81;5073788;28;20103;-63
2021/07/26 00:10:13;;;;;;;16.80;11.00;;;;;;;17.04;89.27;100987.19;5073016;28;20436;-64
2021/07/26 00:12:39;;;;;;;14.02;10.23;;;;;;;17.03;89.44;100978.31;5073033;28;20036;-64
2021/07/26 00:15:06;;;;;;;13.20;9.95;;;;;;;17.06;89.10;100976.34;5072948;28;20031;-66
2021/07/26 00:17:32;;;;;;;16.52;10.55;;;;;;;17.06;89.51;100984.38;5073588;28;20024;-63
2021/07/26 00:19:57;;;;;;;12.75;10.07;;;;;;;17.05;89.35;100978.19;5073695;28;20490;-67
2021/07/26 00:22:22;;;;;;;14.95;11.68;;;;;;;17.04;89.60;100973.81;5073109;28;20363;-68
2021/07/26 00:24:48;;;;;;;15.55;10.90;;;;;;;17.02;89.75;100967.69;5073306;28;20111;-64
2021/07/26 00:27:13;;;;;;;16.20;12.02;;;;;;;17.02;89.92;100973.91;5073078;28;20111;-63
2021/07/26 00:29:38;;;;;;;20.33;13.15;;;;;;;16.99;90.14;100967.91;5073182;28;20035;-66
2021/07/26 00:32:04;;;;;;;18.30;12.55;;;;;;;16.99;89.82;100971.44;5072791;28;20048;-64
2021/07/26 00:34:29;;;;;;;16.30;11.40;;;;;;;16.99;90.03;100971.44;5054889;28;20441;-63
2021/07/26 00:36:56;;;;;;;16.48;12.40;;;;;;;16.98;90.01;100974.22;5072810;28;20428;-64
2021/07/26 00:39:35;;;;;;;20.20;13.20;;;;;;;16.98;90.23;100971.53;5072918;28;20073;-63
2021/07/26 00:42:01;;;;;;;20.83;14.57;;;;;;;16.97;90.15;100970.69;5073204;28;20025;-63
2021/07/26 00:44:29;;;;;;;21.90;15.90;;;;;;;16.95;90.13;100971.78;5072459;28;20056;-63
2021/07/26 00:46:56;;;;;;;20.45;15.02;;;;;;;16.93;90.12;100963.88;5072321;28;20355;-64
2021/07/26 00:49:23;;;;;;;20.45;16.00;;;;;;;16.87;90.38;100957.06;5072637;28;20064;-64
2021/07/26 00:51:54;;;;;;;24.58;17.20;;;;;;;16.84;90.75;100951.06;5072883;28;20032;-71
2021/07/26 00:54:22;;;;;;;20.70;15.40;;;;;;;16.82;90.40;100953.03;5072245;28;20025;-64
2021/07/26 00:56:49;;;;;;;24.88;17.75;;;;;;;16.80;90.49;100945.13;5072456;28;20029;-68
2021/07/26 00:59:15;;;;;;;24.00;16.45;;;;;;;16.79;90.41;100953.22;5073028;28;20098;-68
2021/07/26 01:01:41;;;;;;;24.60;17.52;;;;;;;16.78;90.43;100948.84;5072826;28;20054;-67
2021/07/26 01:04:07;;;;;;;26.10;17.88;;;;;;;16.77;90.84;100949.81;5072428;28;20526;-64
2021/07/26 01:06:33;;;;;;;24.23;17.83;;;;;;;16.77;90.68;100952.50;5072493;28;20024;-64
2021/07/26 01:08:59;;;;;;;26.52;18.02;;;;;;;16.76;90.52;100956.13;5072911;28;20024;-64
2021/07/26 01:11:24;;;;;;;28.77;20.05;;;;;;;16.73;90.21;100940.25;5072777;28;20385;-64
2021/07/26 01:13:49;;;;;;;26.63;19.10;;;;;;;16.69;90.49;100953.03;5072189;28;20367;-64
2021/07/26 01:16:15;;;;;;;29.17;21.13;;;;;;;16.69;90.88;100942.31;5072255;28;20028;-65
2021/07/26 01:18:40;;;;;;;28.83;20.63;;;;;;;16.66;90.90;100945.19;5072767;28;20027;-65
2021/07/26 01:21:07;;;;;;;26.25;19.67;;;;;;;16.63;90.68;100942.75;5071998;28;20056;-65
2021/07/26 01:23:35;;;;;;;28.80;20.90;;;;;;;16.64;90.67;100947.97;5053408;28;20393;-64
2021/07/26 01:26:04;;;;;;;25.75;18.02;;;;;;;16.68;90.59;100948.63;5072085;28;20416;-64
2021/07/26 01:28:33;;;;;;;28.33;20.38;;;;;;;16.69;91.04;100953.84;5052392;28;20075;-64
2021/07/26 01:30:59;;;;;;;28.27;20.20;;;;;;;16.71;91.28;100951.06;5056849;28;20021;-63
2021/07/26 01:33:25;;;;;;;30.23;20.92;;;;;;;16.74;90.51;100944.66;5072474;28;20107;-70
2021/07/26 01:35:52;;;;;;;28.13;20.35;;;;;;;16.75;90.74;100949.03;5072346;28;20482;-64
2021/07/26 01:38:17;;;;;;;28.20;21.13;;;;;;;16.77;90.96;100952.50;5072087;28;20420;-63
2021/07/26 01:40:49;;;;;;;30.55;22.85;;;;;;;16.77;90.69;100952.50;5072175;28;20078;-65
2021/07/26 01:43:14;;;;;;;;;;;;;;;16.81;90.85;100953.97;5072564;28;20051;-66
2021/07/26 01:45:40;;;;;;;32.58;23.15;;;;;;;16.85;91.14;100952.78;5072376;28;19912;-64
2021/07/26 01:48:17;;;;;;;29.77;21.42;;;;;;;16.92;90.96;100963.94;5071588;28;20028;-64
2021/07/26 01:50:57;;;;;;;33.08;22.38;;;;;;;16.94;91.07;100962.03;5072219;28;20036;-70
2021/07/26 01:53:23;;;;;;;30.05;21.67;;;;;;;16.99;91.22;100963.41;5072088;28;20024;-64
2021/07/26 01:55:49;;;;;;;32.20;22.35;;;;;;;17.01;90.88;100966.84;5072029;28;20039;-64
2021/07/26 01:58:15;;;;;;;31.27;22.25;;;;;;;17.04;90.98;100955.91;5071679;28;20024;-64
2021/07/26 02:00:40;;;;;;;25.65;19.08;;;;;;;17.05;90.80;100954.13;5072291;28;20069;-64
2021/07/26 02:03:05;;;;;;;30.55;23.02;;;;;;;17.04;90.87;100963.09;5071749;28;20032;-71
2021/07/26 02:05:31;;;;;;;29.30;21.40;;;;;;;17.04;90.41;100958.59;5053639;28;20367;-64
2021/07/26 02:07:56;;;;;;;29.75;21.63;;;;;;;17.07;90.62;100952.16;5071955;28;20340;-64
2021/07/26 02:10:22;;;;;;;29.08;21.77;;;;;;;17.07;90.86;100952.16;5071536;28;20033;-64
2021/07/26 02:12:47;;;;;;;29.38;22.25;;;;;;;17.10;90.63;100953.81;5071758;28;20074;-64
2021/07/26 02:15:12;;;;;;;31.25;23.13;;;;;;;17.10;90.77;100957.31;5072415;28;20024;-67
2021/07/26 02:17:38;;;;;;;32.35;22.05;;;;;;;17.10;90.85;100956.47;5071360;28;20696;-71
2021/07/26 02:20:04;;;;;;;25.70;19.95;;;;;;;17.10;90.59;100959.16;5071944;28;20020;-63
2021/07/26 02:22:30;;;;;;;30.15;21.67;;;;;;;17.12;90.87;100947.38;5072090;28;20036;-64
2021/07/26 02:24:55;;;;;;;33.60;21.05;;;;;;;17.14;90.41;100948.09;5053905;28;20025;-63
2021/07/26 02:27:20;;;;;;;31.50;22.25;;;;;;;17.12;90.14;100952.72;5072055;28;20021;-66
2021/07/26 02:29:45;;;;;;;28.05;21.92;;;;;;;17.10;90.61;100949.28;5070846;28;20051;-63
2021/07/26 02:32:11;;;;;;;30.92;22.58;;;;;;;17.15;90.67;100943.63;5049461;28;20048;-63
2021/07/26 02:34:36;;;;;;;32.80;23.50;;;;;;;17.20;91.16;100949.50;5054548;28;20025;-63
2021/07/26 02:37:02;;;;;;;26.63;19.25;;;;;;;17.22;90.47;100952.06;5055617;28;20024;-70
2021/07/26 02:39:28;;;;;;;30.00;21.20;;;;;;;17.23;90.33;100951.94;5065549;28;20557;-67
2021/07/26 02:41:53;;;;;;;30.42;21.02;;;;;;;17.20;89.99;100949.50;5074984;28;20099;-64
2021/07/26 02:44:18;;;;;;;34.95;22.88;;;;;;;17.21;90.33;100956.53;5073043;28;20074;-63
2021/07/26 02:46:43;;;;;;;27.90;21.08;;;;;;;17.18;90.54;100954.09;5075718;28;20032;-64
2021/07/26 02:49:09;;;;;;;31.05;23.13;;;;;;;17.15;90.06;100959.69;5074329;28;20386;-64
2021/07/26 02:51:34;;;;;;;27.83;19.95;;;;;;;17.16;90.12;100958.69;5075287;28;20386;-67
2021/07/26 02:53:59;;;;;;;33.33;23.25;;;;;;;17.13;90.33;100958.94;5075108;28;20085;-64
2021/07/26 02:56:25;;;;;;;31.58;23.23;;;;;;;17.11;90.54;100955.50;5075173;28;20421;-64
2021/07/26 02:58:50;;;;;;;31.67;23.77;;;;;;;17.13;90.79;100958.94;5074480;28;20039;-64
2021/07/26 03:01:18;;;;;;;29.23;22.98;;;;;;;17.13;90.83;100962.44;5074768;28;20035;-66
2021/07/26 03:03:43;;;;;;;29.95;22.48;;;;;;;17.14;90.82;100952.63;5075234;28;20020;-65
2021/07/26 03:06:16;;;;;;;29.67;22.73;;;;;;;17.15;90.64;100955.19;5075028;28;20359;-64
2021/07/26 03:08:42;;;;;;;31.75;23.02;;;;;;;17.13;90.38;100966.94;5074883;28;20021;-71
2021/07/26 03:11:10;;;;;;;33.40;23.42;;;;;;;17.13;90.46;100964.28;5074157;28;20025;-65
2021/07/26 03:13:47;;;;;;;31.70;22.92;;;;;;;17.11;90.46;100967.06;5074871;28;20043;-64
2021/07/26 03:16:14;;;;;;;33.38;24.42;;;;;;;17.10;90.97;100970.69;5074597;28;20028;-66
2021/07/26 03:18:39;;;;;;;28.42;21.33;;;;;;;17.11;91.01;100971.53;5074639;28;20056;-64
2021/07/26 03:21:05;;;;;;;27.88;21.30;;;;;;;17.13;90.71;100966.94;5074312;28;20430;-64
2021/07/26 03:23:32;;;;;;;31.83;23.08;;;;;;;17.10;90.43;100969.84;5074609;28;20078;-65
2021/07/26 03:25:57;;;;;;;35.15;23.90;;;;;;;17.08;90.88;100966.41;5074548;28;20032;-64
2021/07/26 03:28:23;;;;;;;32.15;21.83;;;;;;;17.07;90.60;100970.91;5074657;28;20154;-64
2021/07/26 03:30:48;;;;;;;29.77;22.02;;;;;;;17.06;90.64;100971.00;5074206;28;20039;-64
2021/07/26 03:33:13;;;;;;;28.77;20.65;;;;;;;17.07;90.72;100976.25;5074497;28;20442;-69
2021/07/26 03:35:39;;;;;;;29.70;21.70;;;;;;;17.05;90.53;100975.53;5074426;28;20025;-71
2021/07/26 03:38:07;;;;;;;26.92;22.08;;;;;;;17.04;90.16;100971.13;5074264;28;20036;-67
2021/07/26 03:40:34;;;;;;;28.80;20.65;;;;;;;17.01;90.31;100974.88;5074471;28;20020;-70
2021/07/26 03:43:01;;;;;;;26.00;20.90;;;;;;;17.00;90.67;100962.44;5073412;28;20506;-64
2021/07/26 03:45:27;;;;;;;24.52;19.13;;;;;;;17.00;90.36;100967.81;5073267;28;20486;-64
2021/07/26 03:47:55;;;;;;;29.83;21.10;;;;;;;17.03;90.71;100980.97;5074037;28;20032;-64
2021/07/26 03:50:21;;;;;;;27.38;18.67;;;;;;;17.06;90.66;100976.34;5074202;28;20102;-64
2021/07/26 03:52:54;;;;;;;33.05;23.00;;;;;;;17.08;90.87;100969.94;5073967;28;20052;-64
2021/07/26 03:55:33;;;;;;;27.02;20.15;;;;;;;17.16;91.12;100972.94;5074122;28;20115;-64
2021/07/26 03:57:59;;;;;;;27.90;20.52;;;;;;;17.27;90.52;100968.66;5073943;28;20025;-65
2021/07/26 04:00:27;;;;;;;26.42;20.50;;;;;;;17.28;90.21;100968.53;5074162;28;20470;-65
2021/07/26 04:08:16;;;;;;;23.35;17.80;;;;;;;17.34;89.27;100975.25;4992301;28;20157;-64
2021/07/26 04:10:46;;;;;;;22.98;18.23;;;;;;;17.30;89.53;100976.44;4992324;28;20206;-68
2021/07/26 04:13:12;;;;;;;24.90;20.38;;;;;;;17.28;89.96;100978.41;4989168;28;20071;-64
2021/07/26 04:15:39;;;;;;;25.20;18.92;;;;;;;17.31;89.38;100978.16;4972818;28;20105;-70
2021/07/26 04:18:04;;;;;;;28.42;19.77;;;;;;;17.29;89.72;100978.28;4972617;28;20547;-65
2021/07/26 04:20:30;;;;;;;26.38;21.20;;;;;;;17.29;89.83;100982.75;4972155;28;20035;-64
2021/07/26 04:22:56;;;;;;;27.35;20.05;;;;;;;17.31;89.54;100979.00;4973649;28;20041;-67
2021/07/26 04:25:22;;;;;;;32.67;20.67;;;;;;;17.28;89.32;100981.91;4973692;28;20094;-71
2021/07/26 04:27:47;;;;;;;26.83;20.48;;;;;;;17.29;89.33;100983.63;4972787;28;20035;-64
2021/07/26 04:30:13;;;;;;;27.63;20.60;;;;;;;17.31;89.64;100984.38;4972635;28;20113;-70
2021/07/26 04:32:47;;;;;;;28.17;21.33;;;;;;;17.31;89.34;100973.66;4972398;28;20110;-70
2021/07/26 04:35:14;;;;;;;26.40;20.20;;;;;;;17.32;89.89;100972.69;4974308;28;20527;-64
2021/07/26 04:37:39;;;;;;;27.75;20.35;;;;;;;17.36;89.55;100963.47;4972064;28;20039;-64
2021/07/26 04:40:08;;;;;;;29.60;20.73;;;;;;;17.40;89.17;100969.47;4972377;28;20038;-68
2021/07/26 04:42:34;;;;;;;32.08;21.77;;;;;;;17.42;89.76;100967.56;4972256;28;20035;-64
2021/07/26 04:44:59;;;;;;;26.17;20.80;;;;;;;17.45;89.55;100978.03;5015209;28;20118;-65
2021/07/26 04:47:24;;;;;;;28.65;21.33;;;;;;;17.48;89.49;100980.50;5072699;28;20036;-65
2021/07/26 04:49:49;;;;;;;26.48;21.08;;;;;;;17.50;89.02;100983.06;5072902;28;20115;-65
2021/07/26 04:52:15;;;;;;;26.67;19.30;;;;;;;17.56;89.02;100981.75;5072567;28;20033;-65
2021/07/26 04:54:40;;;;;;;29.70;21.05;;;;;;;17.54;88.79;100995.25;5072463;28;20470;-66
2021/07/26 04:57:05;;;;;;;28.88;21.50;;;;;;;17.51;88.92;100996.34;5072265;28;20130;-64
2021/07/26 04:59:31;;;;;;;28.73;21.80;;;;;;;17.49;89.16;100986.69;5072260;28;20042;-65
2021/07/26 05:01:56;;;;;;;26.83;21.30;;;;;;;17.52;89.21;100989.19;5072706;28;20059;-65
2021/07/26 05:04:21;;;;;;;25.90;20.60;;;;;;;17.59;88.56;100986.91;5072649;28;20035;-68
2021/07/26 05:06:47;;;;;;;24.98;19.25;;;;;;;17.65;88.73;100978.44;5071633;28;20025;-64
2021/07/26 05:09:13;;;;;;;28.60;20.50;;;;;;;17.61;88.66;100977.78;5071537;28;20552;-66
2021/07/26 05:11:40;;;;;;;30.92;22.45;;;;;;;17.61;88.76;100983.16;5072632;28;20031;-65
2021/07/26 05:14:07;;;;;;;30.15;21.17;;;;;;;17.58;88.72;100980.69;5072570;28;20039;-64
2021/07/26 05:16:32;;;;;;;29.98;21.35;;;;;;;17.61;88.74;100987.63;5071986;28;20054;-71
2021/07/26 05:18:58;;;;;;;30.95;22.20;;;;;;;17.64;89.00;100980.22;5072101;28;20032;-65
2021/07/26 05:21:24;;;;;;;28.83;22.25;;;;;;;17.71;89.43;100982.47;5071875;28;20099;-67
2021/07/26 05:23:50;;;;;;;33.28;23.15;;;;;;;17.74;89.33;100974.22;5071933;28;20458;-65
2021/07/26 05:26:15;;;;;;;25.42;18.85;;;;;;;17.76;88.58;100977.63;5071932;28;20075;-67
2021/07/26 05:28:40;;;;;;;39.63;22.38;;;;;;;17.70;89.10;100984.31;5072259;28;20123;-71
2021/07/26 05:31:06;;;;;;;37.53;25.50;;;;;;;17.68;89.43;100980.88;5071081;28;20115;-66
2021/07/26 05:33:31;;;;;;;35.95;25.92;;;;;;;17.68;90.38;100980.88;5072230;28;20060;-65
2021/07/26 05:35:56;;;;;;;51.40;27.77;;;;;;;17.62;90.58;100979.50;5072169;28;20028;-66
2021/07/26 05:38:21;;;;;;;49.85;29.65;;;;;;;17.65;91.25;100975.75;5071768;28;20115;-66
2021/07/26 05:40:47;;;;;;;27.83;19.45;;;;;;;17.63;90.40;100978.53;5071939;28;20020;-66
2021/07/26 05:43:14;;;;;;;44.22;27.50;;;;;;;17.64;90.79;100972.19;5071959;28;20140;-65
2021/07/26 05:45:39;;;;;;;31.92;23.10;;;;;;;17.78;91.23;100965.00;5072157;28;20021;-65
2021/07/26 05:48:05;;;;;;;38.22;26.25;;;;;;;17.88;91.08;100970.50;5071842;28;20063;-66
2021/07/26 05:50:31;;;;;;;45.95;30.17;;;;;;;18.06;91.41;100979.91;5072278;28;20103;-64
2021/07/26 05:52:56;;;;;;;36.28;26.48;;;;;;;18.25;91.02;100973.16;5052091;28;20036;-65
2021/07/26 05:55:21;;;;;;;27.10;21.42;;;;;;;18.32;88.96;100969.06;5070770;28;20501;-66
2021/07/26 05:57:47;;;;;;;35.63;25.95;;;;;;;18.41;89.82;100959.47;5053174;28;20060;-65
2021/07/26 06:00:17;;;;;;;34.03;24.60;;;;;;;18.53;89.86;100969.28;5053271;28;20136;-65
2021/07/26 06:02:43;;;;;;;32.28;23.85;;;;;;;18.65;89.63;100971.00;5070807;28;20362;-65
2021/07/26 06:05:08;;;;;;;28.08;21.58;;;;;;;18.79;88.74;100974.44;5071305;28;20031;-69
2021/07/26 06:07:34;;;;;;;25.98;18.88;;;;;;;18.90;88.06;100979.00;5066236;28;20032;-67
2021/07/26 06:09:59;;;;;;;24.52;18.42;;;;;;;18.90;87.61;100976.31;5055337;28;20060;-66
2021/07/26 06:12:26;;;;;;;26.20;20.75;;;;;;;18.97;88.27;100981.06;5067143;28;20036;-65
2021/07/26 06:14:51;;;;;;;24.85;20.15;;;;;;;19.08;87.45;100984.75;5075698;28;20021;-65
2021/07/26 06:17:17;;;;;;;21.33;15.82;;;;;;;19.09;86.28;100979.28;5075924;28;20023;-65
2021/07/26 06:19:43;;;;;;;21.63;18.85;;;;;;;19.07;86.79;100983.91;5075141;28;20509;-69
2021/07/26 06:22:08;;;;;;;27.55;19.60;;;;;;;19.02;85.84;100986.09;5073265;28;20021;-66
2021/07/26 06:24:33;;;;;;;29.48;21.20;;;;;;;19.06;86.62;100984.03;5071829;28;20020;-66
2021/07/26 06:26:59;;;;;;;29.20;20.88;;;;;;;19.17;87.00;100984.03;5075698;28;20097;-65
2021/07/26 06:29:25;;;;;;;24.35;18.10;;;;;;;19.28;86.03;100986.75;5075960;28;20115;-65
2021/07/26 06:31:51;;;;;;;29.08;19.98;;;;;;;19.39;86.40;100991.25;5074635;28;20035;-64
2021/07/26 06:34:17;;;;;;;25.00;18.80;;;;;;;19.48;85.53;100989.66;5075746;28;20029;-69
2021/07/26 06:36:42;;;;;;;23.95;18.65;;;;;;;19.54;85.43;100989.16;5075390;28;20063;-65
2021/07/26 06:39:09;;;;;;;23.50;19.33;;;;;;;19.58;84.99;100995.16;5074480;28;20061;-67
2021/07/26 06:41:35;;;;;;;24.17;20.48;;;;;;;19.54;85.34;100999.03;5075352;28;20024;-65
2021/07/26 06:44:00;;;;;;;27.27;20.00;;;;;;;19.39;85.55;101001.97;5072833;28;20115;-65
2021/07/26 06:46:26;;;;;;;27.30;21.80;;;;;;;19.24;86.13;101004.03;5075769;28;20432;-65
2021/07/26 06:48:51;;;;;;;30.90;22.98;;;;;;;19.09;86.74;101007.94;5075431;28;20527;-65
2021/07/26 06:51:17;;;;;;;25.88;19.83;;;;;;;19.03;85.79;101006.59;5075197;28;20078;-65
2021/07/26 06:53:43;;;;;;;24.40;20.13;;;;;;;18.95;85.75;101014.38;5074487;28;20403;-67
2021/07/26 06:56:09;;;;;;;27.13;20.45;;;;;;;18.84;85.07;101015.19;5074473;28;20083;-65
2021/07/26 06:58:35;;;;;;;25.05;19.65;;;;;;;18.87;85.05;101017.63;5074911;28;20111;-66
2021/07/26 07:01:14;;;;;;;27.52;22.52;;;;;;;18.84;86.68;101018.72;5075387;28;20051;-67
2021/07/26 07:03:41;;;;;;;25.48;20.73;;;;;;;18.88;85.79;101018.50;5075175;28;20128;-66
2021/07/26 07:06:16;;;;;;;24.63;20.15;;;;;;;18.87;84.92;101022.97;5073836;28;20384;-69
2021/07/26 07:08:43;;;;;;;23.23;19.42;;;;;;;18.83;85.52;101019.69;5073790;28;20493;-68
2021/07/26 07:11:13;;;;;;;26.95;21.13;;;;;;;18.81;86.25;101018.97;5074326;28;20332;-70
2021/07/26 07:13:40;;;;;;;28.15;21.15;;;;;;;18.81;86.85;101020.78;5073343;28;20028;-69
2021/07/26 07:16:09;;;;;;;31.17;22.17;;;;;;;18.81;87.60;101024.31;5069216;28;20032;-69
2021/07/26 07:18:35;;;;;;;25.90;20.75;;;;;;;18.90;87.04;101028.16;5062453;28;20033;-67
2021/07/26 07:21:01;;;;;;;25.35;21.27;;;;;;;18.81;86.34;101021.66;5071522;28;20485;-65
2021/07/26 07:23:26;;;;;;;25.70;20.63;;;;;;;18.78;86.77;101021.03;5055817;28;20017;-67
2021/07/26 07:25:52;;;;;;;29.85;23.50;;;;;;;18.78;87.12;101016.50;5054822;28;20422;-65
2021/07/26 07:28:18;;;;;;;31.33;23.33;;;;;;;18.86;87.40;101021.28;5062314;28;20025;-70
2021/07/26 07:30:43;;;;;;;28.10;22.80;;;;;;;18.99;87.42;101023.91;5074548;28;20032;-66
2021/07/26 07:33:09;;;;;;;29.00;22.23;;;;;;;19.19;86.27;101019.66;5074078;28;20021;-70
2021/07/26 07:35:34;;;;;;;32.30;23.83;;;;;;;19.40;85.95;101016.25;5073620;28;20035;-67
2021/07/26 07:38:00;;;;;;;27.20;22.17;;;;;;;19.56;85.55;101022.09;5072651;28;20477;-68
2021/07/26 07:40:25;;;;;;;29.42;23.10;;;;;;;19.65;83.81;101012.47;5072709;28;20037;-66
2021/07/26 07:42:51;;;;;;;26.75;23.17;;;;;;;19.62;83.48;101021.63;5074121;28;20035;-70
2021/07/26 07:45:16;;;;;;;29.98;24.90;;;;;;;19.60;85.16;101020.03;5071670;28;20498;-66
2021/07/26 07:47:42;;;;;;;29.55;24.92;;;;;;;19.64;84.58;101008.06;5073896;28;20033;-69
2021/07/26 07:50:08;;;;;;;27.30;23.27;;;;;;;19.98;84.79;101019.63;5073235;28;20032;-71
2021/07/26 07:52:34;;;;;;;26.60;22.23;;;;;;;20.40;83.43;101021.59;5073684;28;20477;-64
2021/07/26 07:55:00;;;;;;;24.60;21.73;;;;;;;20.52;81.51;101021.53;5073202;28;20128;-64
2021/07/26 07:57:28;;;;;;;25.83;22.33;;;;;;;20.49;81.27;101021.78;5073462;28;20099;-66
2021/07/26 07:59:54;;;;;;;24.92;22.23;;;;;;;20.32;80.78;101036.66;5065490;28;20056;-66
2021/07/26 08:02:19;;;;;;;25.95;21.83;;;;;;;20.25;82.20;101039.00;5073482;28;20071;-66
2021/07/26 08:04:45;;;;;;;26.60;22.20;;;;;;;20.13;81.44;101039.03;5070760;28;20039;-67
2021/07/26 08:07:10;;;;;;;30.13;24.17;;;;;;;20.04;83.01;101042.47;5070452;28;20051;-70
2021/07/26 08:09:36;;;;;;;25.10;21.40;;;;;;;19.99;81.92;101044.69;5069024;28;20051;-68
2021/07/26 08:12:01;;;;;;;23.35;20.08;;;;;;;19.94;81.21;101050.44;5072044;28;20032;-66
2021/07/26 08:14:27;;;;;;;23.15;20.45;;;;;;;19.91;81.58;101042.63;5073604;28;20363;-68
2021/07/26 08:16:52;;;;;;;25.27;21.23;;;;;;;19.98;82.52;101041.13;5070584;28;20059;-64
2021/07/26 08:19:18;;;;;;;23.42;20.05;;;;;;;20.00;83.10;101051.78;5069318;28;20029;-67
2021/07/26 08:21:44;;;;;;;25.92;20.08;;;;;;;19.98;82.68;101045.66;5068993;28;20485;-66
2021/07/26 08:24:09;;;;;;;25.88;21.42;;;;;;;20.02;82.50;101047.13;5069602;28;20021;-65
2021/07/26 08:26:34;;;;;;;26.58;22.38;;;;;;;20.11;82.30;101053.59;5067484;28;20044;-65
2021/07/26 08:29:00;;;;;;;27.13;23.70;;;;;;;20.28;80.93;101047.69;5069718;28;20025;-67
2021/07/26 08:31:25;;;;;;;23.15;20.75;;;;;;;20.51;80.46;101046.72;5070067;28;20029;-66
2021/07/26 08:33:50;;;;;;;28.85;24.50;;;;;;;20.78;79.94;101044.44;5072182;28;20060;-68
2021/07/26 08:36:16;;;;;;;23.35;20.85;;;;;;;21.10;78.46;101043.53;5070058;28;20032;-67
2021/07/26 08:38:41;;;;;;;25.13;21.40;;;;;;;21.58;77.41;101030.44;5070396;28;20697;-64
2021/07/26 08:41:06;;;;;;;19.17;17.17;;;;;;;21.99;71.46;101025.88;5070962;28;20466;-68
2021/07/26 08:43:32;;;;;;;18.63;16.73;;;;;;;22.27;70.37;101035.00;5069711;28;20025;-66
2021/07/26 08:45:58;;;;;;;19.02;17.02;;;;;;;22.36;70.35;101036.03;5072421;28;20032;-68
2021/07/26 08:48:24;;;;;;;20.15;18.08;;;;;;;22.64;73.29;101024.53;5071490;28;20086;-65
2021/07/26 08:50:53;;;;;;;20.33;18.23;;;;;;;23.05;71.60;101026.00;5071512;28;20039;-65
2021/07/26 08:53:20;;;;;;;17.80;16.00;;;;;;;23.16;67.54;101022.34;5072025;28;20111;-67
2021/07/26 08:55:49;;;;;;;17.70;15.88;;;;;;;22.95;67.68;101029.75;5054512;28;20035;-67
2021/07/26 08:58:15;;;;;;;18.23;16.42;;;;;;;22.92;70.13;101022.78;5072177;28;20107;-64
2021/07/26 09:00:41;;;;;;;17.20;15.45;;;;;;;23.13;71.93;101029.84;5072272;28;20028;-67
2021/07/26 09:03:06;;;;;;;18.58;15.88;;;;;;;23.35;71.25;101031.38;5071676;28;20032;-65
2021/07/26 09:05:31;;;;;;;15.75;13.48;;;;;;;23.62;70.31;101026.97;5072172;28;20362;-66
2021/07/26 09:07:59;;;;;;;14.70;13.30;;;;;;;24.24;66.28;101029.91;5071569;28;20062;-68
2021/07/26 09:10:25;;;;;;;13.30;12.00;;;;;;;23.91;65.16;101032.25;5070134;28;20082;-67
2021/07/26 09:12:52;;;;;;;16.02;14.52;;;;;;;23.46;69.61;101027.63;5068997;28;20024;-65
2021/07/26 09:15:36;;;;;;;13.73;12.32;;;;;;;23.04;70.15;101035.13;5068112;28;20399;-64
2021/07/26 09:18:06;;;;;;;12.20;10.20;;;;;;;22.62;68.95;101035.47;5070602;28;20382;-65
2021/07/26 09:20:34;;;;;;;11.95;9.98;;;;;;;22.42;68.34;101027.38;5071810;28;20033;-65
2021/07/26 09:23:18;;;;;;;11.73;10.23;;;;;;;22.32;70.24;101023.78;5071306;28;20064;-65
2021/07/26 09:25:45;;;;;;;10.38;8.70;;;;;;;22.22;71.41;101037.25;5070048;28;20032;-65
2021/07/26 09:28:20;;;;;;;11.95;10.07;;;;;;;22.04;72.60;101033.56;5071838;28;20086;-68
2021/07/26 09:30:51;;;;;;;10.98;9.77;;;;;;;21.96;71.19;101039.66;5072035;28;20033;-64
2021/07/26 09:33:23;;;;;;;11.17;9.70;;;;;;;22.14;70.33;101031.72;5070832;28;20032;-67
2021/07/26 09:36:13;;;;;;;13.35;10.10;;;;;;;22.43;70.88;101041.75;5070484;28;20032;-68
2021/07/26 09:38:56;;;;;;;12.05;10.43;;;;;;;22.59;68.39;101042.00;5061226;28;20037;-65
2021/07/26 09:41:42;;;;;;;13.63;10.38;;;;;;;22.48;69.30;101039.47;5069800;28;20115;-65
2021/07/26 09:44:08;;;;;;;14.55;11.35;;;;;;;22.47;69.24;101042.28;5070827;28;20041;-64
2021/07/26 09:46:35;;;;;;;13.35;11.88;;;;;;;22.52;68.47;101034.59;5071275;28;20032;-65
2021/07/26 09:49:09;;;;;;;16.90;11.75;;;;;;;23.68;64.87;101038.06;5071369;28;20024;-65
2021/07/26 09:51:34;;;;;;;12.73;11.00;;;;;;;24.98;59.12;101033.28;5072106;28;20056;-64
2021/07/26 09:54:00;;;;;;;13.80;10.30;;;;;;;25.78;56.49;101040.34;5072114;28;20056;-66
2021/07/26 09:56:29;;;;;;;13.63;10.60;;;;;;;25.09;58.38;101036.72;5071954;28;20029;-65
2021/07/26 09:58:55;;;;;;;15.93;12.10;;;;;;;24.19;62.60;101048.47;5071039;28;20031;-69
2021/07/26 10:01:21;;;;;;;15.55;13.25;;;;;;;23.48;64.01;101044.53;5062700;28;20464;-69
2021/07/26 10:03:47;;;;;;;17.42;13.35;;;;;;;22.73;66.68;101050.66;5071253;28;20035;-69
2021/07/26 10:06:13;;;;;;;23.23;15.85;;;;;;;22.08;72.22;101054.72;5069263;28;20506;-65
2021/07/26 10:08:39;;;;;;;26.10;16.77;;;;;;;21.34;74.51;101050.44;5066851;28;20028;-66
2021/07/26 10:11:04;;;;;;;27.92;18.65;;;;;;;20.81;78.24;101051.41;5070386;28;20753;-68
2021/07/26 10:13:30;;;;;;;25.17;18.10;;;;;;;20.58;80.06;101048.78;5070241;28;20422;-66
2021/07/26 10:15:57;;;;;;;31.20;21.10;;;;;;;20.49;81.10;101051.38;5071275;28;20041;-65
2021/07/26 10:18:23;;;;;;;25.80;17.67;;;;;;;20.30;79.63;101051.06;5052905;28;20478;-65
2021/07/26 10:21:01;;;;;;;30.83;18.63;;;;;;;20.37;82.12;101048.75;5071420;28;20130;-65
2021/07/26 10:23:40;;;;;;;32.65;20.27;;;;;;;20.56;83.12;101045.38;5069329;28;20070;-68
2021/07/26 10:26:10;;;;;;;21.52;14.77;;;;;;;20.82;80.03;101045.03;5069225;28;20812;-67
2021/07/26 10:28:51;;;;;;;21.10;15.07;;;;;;;21.04;79.17;101040.50;5069148;28;20086;-67
2021/07/26 10:31:32;;;;;;;20.40;13.15;;;;;;;21.36;74.70;101048.47;5070519;28;20035;-64
2021/07/26 10:34:15;;;;;;;24.40;14.52;;;;;;;21.79;75.69;101037.59;5065081;28;20050;-65
2021/07/26 10:36:40;;;;;;;21.42;14.65;;;;;;;22.36;75.20;101036.03;5069401;28;20021;-65
2021/07/26 10:39:09;;;;;;;22.35;15.43;;;;;;;22.84;74.28;101037.03;5071474;28;20092;-67
2021/07/26 10:41:43;;;;;;;20.38;14.32;;;;;;;22.89;69.71;101037.44;5070871;28;20028;-67
2021/07/26 10:44:29;;;;;;;26.77;17.40;;;;;;;23.36;72.19;101039.34;5070863;28;20051;-66
2021/07/26 10:47:06;;;;;;;22.30;15.45;;;;;;;24.83;61.42;101032.97;5066352;28;20029;-67
2021/07/26 10:49:42;;;;;;;19.95;14.13;;;;;;;25.39;60.22;101040.84;5071600;28;20366;-71
2021/07/26 10:52:09;;;;;;;22.30;15.40;;;;;;;25.88;58.92;101045.59;5071192;28;20534;-70
2021/07/26 10:54:35;;;;;;;21.05;16.55;;;;;;;26.17;60.27;101041.66;5072337;28;20028;-68
2021/07/26 10:57:05;;;;;;;18.75;14.57;;;;;;;25.95;53.46;101041.22;5074288;28;20099;-66
2021/07/26 11:00:09;;;;;;;18.60;13.77;;;;;;;25.99;55.25;101041.75;5074002;28;20037;-67
2021/07/26 11:02:36;;;;;;;21.15;15.68;;;;;;;26.00;57.37;101038.88;5074494;28;20103;-68
2021/07/26 11:05:26;;;;;;;21.80;16.77;;;;;;;26.95;53.23;101043.06;5069796;28;20021;-66
2021/07/26 11:08:13;;;;;;;22.40;17.17;;;;;;;26.38;56.13;101040.31;5057456;28;20408;-69
2021/07/26 11:10:43;;;;;;;18.45;14.73;;;;;;;25.73;57.03;101047.25;5074488;28;20086;-70
2021/07/26 11:13:09;;;;;;;18.80;13.20;;;;;;;26.07;57.63;101046.38;5073645;28;20485;-67
2021/07/26 11:15:46;;;;;;;17.98;13.90;;;;;;;25.73;56.54;101039.13;5074767;28;20107;-70